sensor_id;sensor_type;location;lat;lon;timestamp;P1;durP1;ratioP1;P2;durP2;ratioP2
17488;SDS011;8861;52.644;4.734;2023-07-29T00:01:26;4.73;;;2.60;;
17488;SDS011;8861;52.644;4.734;2023-07-29T00:03:53;6.50;;;2.60;;
17488;SDS011;8861;52.644;4.734;2023-07-29T00:06:21;7.63;;;3.07;;
17488;SDS011;8861;52.644;4.734;2023-07-29T00:08:48;6.83;;;2.50;;
17488;SDS011;8861;52.644;4.734;2023-07-29T00:11:16;6.40;;;2.90;;
17488;SDS011;8861;52.644;4.734;2023-07-29T00:13:43;8.80;;;3.30;;
17488;SDS011;8861;52.644;4.734;2023-07-29T00:16:12;6.80;;;2.70;;
17488;SDS011;8861;52.644;4.734;2023-07-29T00:18:40;5.67;;;2.63;;
17488;SDS011;8861;52.644;4.734;2023-07-29T00:21:07;4.37;;;2.43;;
17488;SDS011;8861;52.644;4.734;2023-07-29T00:23:34;5.30;;;2.40;;
17488;SDS011;8861;52.644;4.734;2023-07-29T00:26:01;3.77;;;2.10;;
17488;SDS011;8861;52.644;4.734;2023-07-29T00:28:30;5.30;;;2.33;;
17488;SDS011;8861;52.644;4.734;2023-07-29T00:30:57;5.97;;;2.70;;
17488;SDS011;8861;52.644;4.734;2023-07-29T00:33:24;6.30;;;2.70;;
17488;SDS011;8861;52.644;4.734;2023-07-29T00:35:51;5.10;;;2.10;;
17488;SDS011;8861;52.644;4.734;2023-07-29T00:38:18;3.80;;;2.23;;
17488;SDS011;8861;52.644;4.734;2023-07-29T00:40:45;5.13;;;2.50;;
17488;SDS011;8861;52.644;4.734;2023-07-29T00:43:12;7.57;;;2.50;;
17488;SDS011;8861;52.644;4.734;2023-07-29T00:45:40;6.43;;;2.37;;
17488;SDS011;8861;52.644;4.734;2023-07-29T00:48:09;4.47;;;2.07;;
17488;SDS011;8861;52.644;4.734;2023-07-29T00:50:36;5.87;;;2.13;;
17488;SDS011;8861;52.644;4.734;2023-07-29T00:53:03;6.33;;;2.23;;
17488;SDS011;8861;52.644;4.734;2023-07-29T00:55:31;3.57;;;2.20;;
17488;SDS011;8861;52.644;4.734;2023-07-29T00:57:58;4.50;;;2.10;;
17488;SDS011;8861;52.644;4.734;2023-07-29T01:00:25;4.10;;;1.90;;
17488;SDS011;8861;52.644;4.734;2023-07-29T01:02:54;3.97;;;2.03;;
17488;SDS011;8861;52.644;4.734;2023-07-29T01:05:21;5.70;;;2.10;;
17488;SDS011;8861;52.644;4.734;2023-07-29T01:07:53;3.97;;;1.90;;
17488;SDS011;8861;52.644;4.734;2023-07-29T01:10:29;6.90;;;2.40;;
17488;SDS011;8861;52.644;4.734;2023-07-29T01:13:02;4.33;;;2.30;;
17488;SDS011;8861;52.644;4.734;2023-07-29T01:15:38;6.87;;;2.67;;
17488;SDS011;8861;52.644;4.734;2023-07-29T01:18:13;4.23;;;2.20;;
17488;SDS011;8861;52.644;4.734;2023-07-29T01:20:44;5.20;;;2.30;;
17488;SDS011;8861;52.644;4.734;2023-07-29T01:23:13;6.73;;;2.57;;
17488;SDS011;8861;52.644;4.734;2023-07-29T01:25:43;3.77;;;2.13;;
17488;SDS011;8861;52.644;4.734;2023-07-29T01:28:10;6.23;;;2.43;;
17488;SDS011;8861;52.644;4.734;2023-07-29T01:30:38;4.33;;;2.27;;
17488;SDS011;8861;52.644;4.734;2023-07-29T01:33:09;3.40;;;2.00;;
17488;SDS011;8861;52.644;4.734;2023-07-29T01:35:41;4.67;;;2.47;;
17488;SDS011;8861;52.644;4.734;2023-07-29T01:38:12;6.30;;;2.40;;
17488;SDS011;8861;52.644;4.734;2023-07-29T01:40:44;6.40;;;2.73;;
17488;SDS011;8861;52.644;4.734;2023-07-29T01:43:13;5.20;;;2.57;;
17488;SDS011;8861;52.644;4.734;2023-07-29T01:45:40;4.97;;;2.60;;
17488;SDS011;8861;52.644;4.734;2023-07-29T01:48:07;6.10;;;2.70;;
17488;SDS011;8861;52.644;4.734;2023-07-29T01:50:34;5.00;;;2.60;;
17488;SDS011;8861;52.644;4.734;2023-07-29T01:53:01;4.00;;;2.30;;
17488;SDS011;8861;52.644;4.734;2023-07-29T01:55:29;5.43;;;2.40;;
17488;SDS011;8861;52.644;4.734;2023-07-29T01:57:57;5.07;;;2.50;;
17488;SDS011;8861;52.644;4.734;2023-07-29T02:00:24;7.87;;;2.57;;
17488;SDS011;8861;52.644;4.734;2023-07-29T02:02:51;5.63;;;2.60;;
17488;SDS011;8861;52.644;4.734;2023-07-29T02:05:18;6.37;;;2.70;;
17488;SDS011;8861;52.644;4.734;2023-07-29T02:07:45;5.47;;;2.60;;
17488;SDS011;8861;52.644;4.734;2023-07-29T02:10:12;7.47;;;2.80;;
17488;SDS011;8861;52.644;4.734;2023-07-29T02:12:39;6.50;;;2.77;;
17488;SDS011;8861;52.644;4.734;2023-07-29T02:15:08;6.53;;;3.07;;
17488;SDS011;8861;52.644;4.734;2023-07-29T02:17:35;6.80;;;3.00;;
17488;SDS011;8861;52.644;4.734;2023-07-29T02:20:03;8.50;;;2.97;;
17488;SDS011;8861;52.644;4.734;2023-07-29T02:22:30;4.97;;;2.70;;
17488;SDS011;8861;52.644;4.734;2023-07-29T02:24:57;7.00;;;2.60;;
17488;SDS011;8861;52.644;4.734;2023-07-29T02:27:24;4.30;;;2.47;;
17488;SDS011;8861;52.644;4.734;2023-07-29T02:29:52;6.13;;;2.97;;
17488;SDS011;8861;52.644;4.734;2023-07-29T02:32:20;8.17;;;3.20;;
17488;SDS011;8861;52.644;4.734;2023-07-29T02:34:48;6.53;;;3.00;;
17488;SDS011;8861;52.644;4.734;2023-07-29T02:37:15;6.00;;;2.80;;
17488;SDS011;8861;52.644;4.734;2023-07-29T02:39:42;5.77;;;2.73;;
17488;SDS011;8861;52.644;4.734;2023-07-29T02:42:09;6.77;;;3.30;;
17488;SDS011;8861;52.644;4.734;2023-07-29T02:44:36;6.73;;;3.10;;
17488;SDS011;8861;52.644;4.734;2023-07-29T02:47:03;9.00;;;3.27;;
17488;SDS011;8861;52.644;4.734;2023-07-29T02:49:31;6.97;;;3.37;;
17488;SDS011;8861;52.644;4.734;2023-07-29T02:51:58;3.73;;;2.80;;
17488;SDS011;8861;52.644;4.734;2023-07-29T02:54:25;4.70;;;2.70;;
17488;SDS011;8861;52.644;4.734;2023-07-29T02:56:52;10.37;;;3.57;;
17488;SDS011;8861;52.644;4.734;2023-07-29T02:59:20;6.93;;;3.03;;
17488;SDS011;8861;52.644;4.734;2023-07-29T03:01:47;9.50;;;3.73;;
17488;SDS011;8861;52.644;4.734;2023-07-29T03:04:13;8.83;;;3.23;;
17488;SDS011;8861;52.644;4.734;2023-07-29T03:06:42;8.40;;;3.40;;
17488;SDS011;8861;52.644;4.734;2023-07-29T03:09:09;7.00;;;3.13;;
17488;SDS011;8861;52.644;4.734;2023-07-29T03:11:36;6.90;;;3.20;;
17488;SDS011;8861;52.644;4.734;2023-07-29T03:14:03;6.97;;;3.00;;
17488;SDS011;8861;52.644;4.734;2023-07-29T03:16:30;8.63;;;3.20;;
17488;SDS011;8861;52.644;4.734;2023-07-29T03:18:57;4.93;;;2.80;;
17488;SDS011;8861;52.644;4.734;2023-07-29T03:21:25;8.17;;;2.90;;
17488;SDS011;8861;52.644;4.734;2023-07-29T03:23:53;8.63;;;3.27;;
17488;SDS011;8861;52.644;4.734;2023-07-29T03:26:20;5.63;;;2.87;;
17488;SDS011;8861;52.644;4.734;2023-07-29T03:28:47;4.57;;;2.70;;
17488;SDS011;8861;52.644;4.734;2023-07-29T03:31:14;5.80;;;2.80;;
17488;SDS011;8861;52.644;4.734;2023-07-29T03:33:41;4.90;;;2.80;;
17488;SDS011;8861;52.644;4.734;2023-07-29T03:36:08;7.03;;;3.30;;
17488;SDS011;8861;52.644;4.734;2023-07-29T03:38:35;6.30;;;2.87;;
17488;SDS011;8861;52.644;4.734;2023-07-29T03:41:06;4.60;;;2.83;;
17488;SDS011;8861;52.644;4.734;2023-07-29T03:43:33;4.63;;;2.60;;
17488;SDS011;8861;52.644;4.734;2023-07-29T03:46:00;3.83;;;2.50;;
17488;SDS011;8861;52.644;4.734;2023-07-29T03:48:27;3.63;;;2.40;;
17488;SDS011;8861;52.644;4.734;2023-07-29T03:50:56;4.93;;;2.60;;
17488;SDS011;8861;52.644;4.734;2023-07-29T03:53:23;6.53;;;3.13;;
17488;SDS011;8861;52.644;4.734;2023-07-29T03:55:50;7.00;;;2.70;;
17488;SDS011;8861;52.644;4.734;2023-07-29T03:58:18;5.50;;;2.80;;
17488;SDS011;8861;52.644;4.734;2023-07-29T04:00:46;8.17;;;3.00;;
17488;SDS011;8861;52.644;4.734;2023-07-29T04:03:13;8.00;;;3.03;;
17488;SDS011;8861;52.644;4.734;2023-07-29T04:05:40;5.33;;;2.70;;
17488;SDS011;8861;52.644;4.734;2023-07-29T04:08:07;8.90;;;3.43;;
17488;SDS011;8861;52.644;4.734;2023-07-29T04:10:35;4.53;;;2.63;;
17488;SDS011;8861;52.644;4.734;2023-07-29T04:13:03;9.10;;;3.00;;
17488;SDS011;8861;52.644;4.734;2023-07-29T04:15:31;4.93;;;2.70;;
17488;SDS011;8861;52.644;4.734;2023-07-29T04:17:58;6.40;;;2.73;;
17488;SDS011;8861;52.644;4.734;2023-07-29T04:20:25;9.73;;;3.00;;
17488;SDS011;8861;52.644;4.734;2023-07-29T04:22:52;9.17;;;3.60;;
17488;SDS011;8861;52.644;4.734;2023-07-29T04:25:19;6.27;;;2.60;;
17488;SDS011;8861;52.644;4.734;2023-07-29T04:27:46;7.67;;;2.90;;
17488;SDS011;8861;52.644;4.734;2023-07-29T04:30:13;7.87;;;2.83;;
17488;SDS011;8861;52.644;4.734;2023-07-29T04:32:41;6.50;;;2.70;;
17488;SDS011;8861;52.644;4.734;2023-07-29T04:35:10;6.20;;;2.77;;
17488;SDS011;8861;52.644;4.734;2023-07-29T04:37:37;8.23;;;3.30;;
17488;SDS011;8861;52.644;4.734;2023-07-29T04:40:04;8.43;;;2.83;;
17488;SDS011;8861;52.644;4.734;2023-07-29T04:42:32;8.03;;;3.10;;
17488;SDS011;8861;52.644;4.734;2023-07-29T04:44:59;7.20;;;2.70;;
17488;SDS011;8861;52.644;4.734;2023-07-29T04:47:26;7.63;;;2.90;;
17488;SDS011;8861;52.644;4.734;2023-07-29T04:49:54;8.07;;;2.83;;
17488;SDS011;8861;52.644;4.734;2023-07-29T04:52:21;8.17;;;3.10;;
17488;SDS011;8861;52.644;4.734;2023-07-29T04:54:48;7.43;;;2.90;;
17488;SDS011;8861;52.644;4.734;2023-07-29T04:57:15;6.43;;;3.00;;
17488;SDS011;8861;52.644;4.734;2023-07-29T04:59:42;7.37;;;2.70;;
17488;SDS011;8861;52.644;4.734;2023-07-29T05:02:09;7.87;;;2.97;;
17488;SDS011;8861;52.644;4.734;2023-07-29T05:04:36;6.67;;;3.00;;
17488;SDS011;8861;52.644;4.734;2023-07-29T05:07:05;8.30;;;2.90;;
17488;SDS011;8861;52.644;4.734;2023-07-29T05:09:32;6.67;;;2.77;;
17488;SDS011;8861;52.644;4.734;2023-07-29T05:11:59;4.27;;;2.33;;
17488;SDS011;8861;52.644;4.734;2023-07-29T05:14:26;6.47;;;2.67;;
17488;SDS011;8861;52.644;4.734;2023-07-29T05:16:53;7.27;;;2.87;;
17488;SDS011;8861;52.644;4.734;2023-07-29T05:19:20;8.67;;;3.00;;
17488;SDS011;8861;52.644;4.734;2023-07-29T05:21:47;8.67;;;3.00;;
17488;SDS011;8861;52.644;4.734;2023-07-29T05:24:16;7.20;;;2.70;;
17488;SDS011;8861;52.644;4.734;2023-07-29T05:26:43;5.13;;;2.43;;
17488;SDS011;8861;52.644;4.734;2023-07-29T05:29:10;7.40;;;2.80;;
17488;SDS011;8861;52.644;4.734;2023-07-29T05:31:37;6.33;;;2.50;;
17488;SDS011;8861;52.644;4.734;2023-07-29T05:34:03;7.77;;;2.80;;
17488;SDS011;8861;52.644;4.734;2023-07-29T05:36:30;4.77;;;2.40;;
17488;SDS011;8861;52.644;4.734;2023-07-29T05:38:58;4.00;;;2.07;;
17488;SDS011;8861;52.644;4.734;2023-07-29T05:41:26;5.70;;;2.60;;
17488;SDS011;8861;52.644;4.734;2023-07-29T05:43:54;8.83;;;2.70;;
17488;SDS011;8861;52.644;4.734;2023-07-29T05:46:21;5.10;;;2.70;;
17488;SDS011;8861;52.644;4.734;2023-07-29T05:48:48;5.37;;;2.60;;
17488;SDS011;8861;52.644;4.734;2023-07-29T05:51:14;9.23;;;3.07;;
17488;SDS011;8861;52.644;4.734;2023-07-29T05:53:41;7.13;;;2.60;;
17488;SDS011;8861;52.644;4.734;2023-07-29T05:56:09;4.73;;;2.50;;
17488;SDS011;8861;52.644;4.734;2023-07-29T05:58:38;7.77;;;2.90;;
17488;SDS011;8861;52.644;4.734;2023-07-29T06:01:05;7.43;;;2.97;;
17488;SDS011;8861;52.644;4.734;2023-07-29T06:03:31;6.20;;;2.60;;
17488;SDS011;8861;52.644;4.734;2023-07-29T06:05:58;6.13;;;2.80;;
17488;SDS011;8861;52.644;4.734;2023-07-29T06:08:25;6.20;;;2.57;;
17488;SDS011;8861;52.644;4.734;2023-07-29T06:10:53;8.40;;;2.90;;
17488;SDS011;8861;52.644;4.734;2023-07-29T06:13:20;6.00;;;2.70;;
17488;SDS011;8861;52.644;4.734;2023-07-29T06:15:49;6.47;;;2.87;;
17488;SDS011;8861;52.644;4.734;2023-07-29T06:18:16;7.67;;;2.73;;
17488;SDS011;8861;52.644;4.734;2023-07-29T06:20:43;6.63;;;2.70;;
17488;SDS011;8861;52.644;4.734;2023-07-29T06:23:10;6.73;;;2.73;;
17488;SDS011;8861;52.644;4.734;2023-07-29T06:25:37;5.30;;;2.60;;
17488;SDS011;8861;52.644;4.734;2023-07-29T06:28:04;5.13;;;2.60;;
17488;SDS011;8861;52.644;4.734;2023-07-29T06:30:31;5.83;;;2.40;;
17488;SDS011;8861;52.644;4.734;2023-07-29T06:32:59;7.23;;;2.67;;
17488;SDS011;8861;52.644;4.734;2023-07-29T06:35:28;8.37;;;2.70;;
17488;SDS011;8861;52.644;4.734;2023-07-29T06:37:55;7.57;;;2.70;;
17488;SDS011;8861;52.644;4.734;2023-07-29T06:40:22;8.30;;;2.70;;
17488;SDS011;8861;52.644;4.734;2023-07-29T06:42:49;7.83;;;3.07;;
17488;SDS011;8861;52.644;4.734;2023-07-29T06:45:16;8.80;;;2.60;;
17488;SDS011;8861;52.644;4.734;2023-07-29T06:47:43;7.33;;;2.90;;
17488;SDS011;8861;52.644;4.734;2023-07-29T06:50:11;6.70;;;2.60;;
17488;SDS011;8861;52.644;4.734;2023-07-29T06:52:38;8.87;;;2.60;;
17488;SDS011;8861;52.644;4.734;2023-07-29T06:55:05;8.03;;;3.00;;
17488;SDS011;8861;52.644;4.734;2023-07-29T06:57:33;8.40;;;2.90;;
17488;SDS011;8861;52.644;4.734;2023-07-29T07:00:00;5.07;;;2.40;;
17488;SDS011;8861;52.644;4.734;2023-07-29T07:02:27;6.53;;;2.73;;
17488;SDS011;8861;52.644;4.734;2023-07-29T07:04:54;6.63;;;2.60;;
17488;SDS011;8861;52.644;4.734;2023-07-29T07:07:23;5.27;;;2.40;;
17488;SDS011;8861;52.644;4.734;2023-07-29T07:09:50;6.33;;;2.33;;
17488;SDS011;8861;52.644;4.734;2023-07-29T07:12:17;6.50;;;2.50;;
17488;SDS011;8861;52.644;4.734;2023-07-29T07:14:44;7.27;;;2.60;;
17488;SDS011;8861;52.644;4.734;2023-07-29T07:17:11;6.40;;;2.40;;
17488;SDS011;8861;52.644;4.734;2023-07-29T07:19:38;5.03;;;2.30;;
17488;SDS011;8861;52.644;4.734;2023-07-29T07:22:05;4.93;;;2.33;;
17488;SDS011;8861;52.644;4.734;2023-07-29T07:24:33;5.83;;;2.40;;
17488;SDS011;8861;52.644;4.734;2023-07-29T07:27:00;4.57;;;2.37;;
17488;SDS011;8861;52.644;4.734;2023-07-29T07:29:27;8.23;;;2.30;;
17488;SDS011;8861;52.644;4.734;2023-07-29T07:31:55;6.33;;;2.50;;
17488;SDS011;8861;52.644;4.734;2023-07-29T07:34:23;5.60;;;2.07;;
17488;SDS011;8861;52.644;4.734;2023-07-29T07:36:50;6.93;;;2.20;;
17488;SDS011;8861;52.644;4.734;2023-07-29T07:39:17;7.00;;;2.33;;
17488;SDS011;8861;52.644;4.734;2023-07-29T07:41:46;4.33;;;2.17;;
17488;SDS011;8861;52.644;4.734;2023-07-29T07:44:13;6.20;;;2.20;;
17488;SDS011;8861;52.644;4.734;2023-07-29T07:46:42;6.83;;;2.27;;
17488;SDS011;8861;52.644;4.734;2023-07-29T07:49:09;6.73;;;2.27;;
17488;SDS011;8861;52.644;4.734;2023-07-29T07:51:37;5.07;;;2.20;;
17488;SDS011;8861;52.644;4.734;2023-07-29T07:54:04;8.10;;;2.50;;
17488;SDS011;8861;52.644;4.734;2023-07-29T07:56:31;7.53;;;2.50;;
17488;SDS011;8861;52.644;4.734;2023-07-29T07:59:00;5.03;;;2.30;;
17488;SDS011;8861;52.644;4.734;2023-07-29T08:01:27;6.53;;;2.43;;
17488;SDS011;8861;52.644;4.734;2023-07-29T08:03:54;9.53;;;2.30;;
17488;SDS011;8861;52.644;4.734;2023-07-29T08:06:21;7.63;;;2.47;;
17488;SDS011;8861;52.644;4.734;2023-07-29T08:08:48;7.93;;;2.50;;
17488;SDS011;8861;52.644;4.734;2023-07-29T08:11:15;7.00;;;2.30;;
17488;SDS011;8861;52.644;4.734;2023-07-29T08:13:42;9.43;;;2.60;;
17488;SDS011;8861;52.644;4.734;2023-07-29T08:16:10;10.37;;;2.73;;
17488;SDS011;8861;52.644;4.734;2023-07-29T08:18:38;8.97;;;2.50;;
17488;SDS011;8861;52.644;4.734;2023-07-29T08:21:04;7.83;;;3.03;;
17488;SDS011;8861;52.644;4.734;2023-07-29T08:23:32;8.77;;;2.60;;
17488;SDS011;8861;52.644;4.734;2023-07-29T08:26:01;8.07;;;2.80;;
17488;SDS011;8861;52.644;4.734;2023-07-29T08:28:31;9.07;;;3.23;;
17488;SDS011;8861;52.644;4.734;2023-07-29T08:30:58;8.57;;;2.97;;
17488;SDS011;8861;52.644;4.734;2023-07-29T08:33:27;12.77;;;3.50;;
17488;SDS011;8861;52.644;4.734;2023-07-29T08:35:54;9.83;;;3.07;;
17488;SDS011;8861;52.644;4.734;2023-07-29T08:38:22;9.83;;;3.37;;
17488;SDS011;8861;52.644;4.734;2023-07-29T08:40:49;8.73;;;3.13;;
17488;SDS011;8861;52.644;4.734;2023-07-29T08:43:20;7.37;;;2.80;;
17488;SDS011;8861;52.644;4.734;2023-07-29T08:45:53;9.17;;;2.90;;
17488;SDS011;8861;52.644;4.734;2023-07-29T08:48:22;9.90;;;3.03;;
17488;SDS011;8861;52.644;4.734;2023-07-29T08:50:56;11.73;;;2.87;;
17488;SDS011;8861;52.644;4.734;2023-07-29T08:53:25;7.27;;;3.50;;
17488;SDS011;8861;52.644;4.734;2023-07-29T08:55:53;9.43;;;3.20;;
17488;SDS011;8861;52.644;4.734;2023-07-29T08:58:21;11.00;;;3.77;;
17488;SDS011;8861;52.644;4.734;2023-07-29T09:00:49;10.47;;;3.20;;
17488;SDS011;8861;52.644;4.734;2023-07-29T09:03:17;10.50;;;3.80;;
17488;SDS011;8861;52.644;4.734;2023-07-29T09:05:44;8.97;;;3.63;;
17488;SDS011;8861;52.644;4.734;2023-07-29T09:08:13;11.10;;;4.20;;
17488;SDS011;8861;52.644;4.734;2023-07-29T09:10:40;8.40;;;3.80;;
17488;SDS011;8861;52.644;4.734;2023-07-29T09:13:07;8.87;;;3.80;;
17488;SDS011;8861;52.644;4.734;2023-07-29T09:15:34;9.53;;;3.60;;
17488;SDS011;8861;52.644;4.734;2023-07-29T09:18:12;9.23;;;3.80;;
17488;SDS011;8861;52.644;4.734;2023-07-29T09:20:41;9.30;;;3.80;;
17488;SDS011;8861;52.644;4.734;2023-07-29T09:23:09;9.73;;;3.30;;
17488;SDS011;8861;52.644;4.734;2023-07-29T09:25:38;8.07;;;3.73;;
17488;SDS011;8861;52.644;4.734;2023-07-29T09:28:09;9.23;;;3.43;;
17488;SDS011;8861;52.644;4.734;2023-07-29T09:30:37;10.37;;;3.40;;
17488;SDS011;8861;52.644;4.734;2023-07-29T09:33:04;10.27;;;3.63;;
17488;SDS011;8861;52.644;4.734;2023-07-29T09:35:32;9.97;;;3.57;;
17488;SDS011;8861;52.644;4.734;2023-07-29T09:38:00;9.73;;;3.73;;
17488;SDS011;8861;52.644;4.734;2023-07-29T09:40:27;10.50;;;4.20;;
17488;SDS011;8861;52.644;4.734;2023-07-29T09:43:01;11.23;;;4.20;;
17488;SDS011;8861;52.644;4.734;2023-07-29T09:45:29;10.80;;;3.97;;
17488;SDS011;8861;52.644;4.734;2023-07-29T09:47:59;7.40;;;4.00;;
17488;SDS011;8861;52.644;4.734;2023-07-29T09:50:26;10.13;;;4.00;;
17488;SDS011;8861;52.644;4.734;2023-07-29T09:52:54;9.83;;;3.80;;
17488;SDS011;8861;52.644;4.734;2023-07-29T09:55:23;7.27;;;3.83;;
17488;SDS011;8861;52.644;4.734;2023-07-29T09:57:52;8.13;;;3.40;;
17488;SDS011;8861;52.644;4.734;2023-07-29T10:00:23;6.83;;;3.17;;
17488;SDS011;8861;52.644;4.734;2023-07-29T10:02:50;8.13;;;3.63;;
17488;SDS011;8861;52.644;4.734;2023-07-29T10:05:19;9.43;;;3.83;;
17488;SDS011;8861;52.644;4.734;2023-07-29T10:07:54;8.70;;;3.40;;
17488;SDS011;8861;52.644;4.734;2023-07-29T10:10:22;9.73;;;3.40;;
17488;SDS011;8861;52.644;4.734;2023-07-29T10:12:49;9.33;;;3.57;;
17488;SDS011;8861;52.644;4.734;2023-07-29T10:15:16;6.80;;;3.43;;
17488;SDS011;8861;52.644;4.734;2023-07-29T10:17:45;9.40;;;3.70;;
17488;SDS011;8861;52.644;4.734;2023-07-29T10:20:13;7.03;;;3.00;;
17488;SDS011;8861;52.644;4.734;2023-07-29T10:22:40;6.00;;;3.10;;
17488;SDS011;8861;52.644;4.734;2023-07-29T10:25:09;8.03;;;3.50;;
17488;SDS011;8861;52.644;4.734;2023-07-29T10:27:43;7.90;;;3.30;;
17488;SDS011;8861;52.644;4.734;2023-07-29T10:30:13;8.97;;;3.40;;
17488;SDS011;8861;52.644;4.734;2023-07-29T10:32:41;7.13;;;3.70;;
17488;SDS011;8861;52.644;4.734;2023-07-29T10:35:11;10.50;;;3.73;;
17488;SDS011;8861;52.644;4.734;2023-07-29T10:37:39;9.67;;;4.10;;
17488;SDS011;8861;52.644;4.734;2023-07-29T10:40:07;5.43;;;3.37;;
17488;SDS011;8861;52.644;4.734;2023-07-29T10:42:37;7.03;;;3.30;;
17488;SDS011;8861;52.644;4.734;2023-07-29T10:47:49;7.40;;;3.53;;
17488;SDS011;8861;52.644;4.734;2023-07-29T10:50:19;5.70;;;2.80;;
17488;SDS011;8861;52.644;4.734;2023-07-29T10:52:50;10.33;;;3.37;;
17488;SDS011;8861;52.644;4.734;2023-07-29T10:55:25;6.30;;;3.10;;
17488;SDS011;8861;52.644;4.734;2023-07-29T10:58:04;7.37;;;2.80;;
17488;SDS011;8861;52.644;4.734;2023-07-29T11:00:32;4.43;;;2.70;;
17488;SDS011;8861;52.644;4.734;2023-07-29T11:03:00;5.20;;;2.70;;
17488;SDS011;8861;52.644;4.734;2023-07-29T11:05:42;4.03;;;2.50;;
17488;SDS011;8861;52.644;4.734;2023-07-29T11:08:20;4.83;;;2.67;;
17488;SDS011;8861;52.644;4.734;2023-07-29T11:10:59;7.93;;;3.03;;
17488;SDS011;8861;52.644;4.734;2023-07-29T11:13:28;10.47;;;3.30;;
17488;SDS011;8861;52.644;4.734;2023-07-29T11:15:56;4.27;;;2.43;;
17488;SDS011;8861;52.644;4.734;2023-07-29T11:18:26;5.50;;;2.87;;
17488;SDS011;8861;52.644;4.734;2023-07-29T11:20:56;4.03;;;2.80;;
17488;SDS011;8861;52.644;4.734;2023-07-29T11:23:33;6.87;;;2.60;;
17488;SDS011;8861;52.644;4.734;2023-07-29T11:26:01;5.40;;;2.63;;
17488;SDS011;8861;52.644;4.734;2023-07-29T11:28:29;6.33;;;2.50;;
17488;SDS011;8861;52.644;4.734;2023-07-29T11:30:56;4.07;;;2.23;;
17488;SDS011;8861;52.644;4.734;2023-07-29T11:33:24;4.87;;;2.37;;
17488;SDS011;8861;52.644;4.734;2023-07-29T11:35:53;7.63;;;2.70;;
17488;SDS011;8861;52.644;4.734;2023-07-29T11:38:22;8.20;;;2.53;;
17488;SDS011;8861;52.644;4.734;2023-07-29T11:40:56;6.80;;;2.37;;
17488;SDS011;8861;52.644;4.734;2023-07-29T11:43:25;5.10;;;2.40;;
17488;SDS011;8861;52.644;4.734;2023-07-29T11:45:53;6.03;;;2.40;;
17488;SDS011;8861;52.644;4.734;2023-07-29T11:48:26;6.50;;;2.47;;
17488;SDS011;8861;52.644;4.734;2023-07-29T11:50:54;5.33;;;2.20;;
17488;SDS011;8861;52.644;4.734;2023-07-29T11:53:22;5.77;;;2.33;;
17488;SDS011;8861;52.644;4.734;2023-07-29T11:55:53;6.70;;;2.63;;
17488;SDS011;8861;52.644;4.734;2023-07-29T11:58:21;4.70;;;2.13;;
17488;SDS011;8861;52.644;4.734;2023-07-29T12:00:48;4.83;;;2.03;;
17488;SDS011;8861;52.644;4.734;2023-07-29T12:03:18;8.03;;;2.40;;
17488;SDS011;8861;52.644;4.734;2023-07-29T12:05:45;7.47;;;2.10;;
17488;SDS011;8861;52.644;4.734;2023-07-29T12:08:12;5.20;;;2.10;;
17488;SDS011;8861;52.644;4.734;2023-07-29T12:10:41;3.30;;;2.17;;
17488;SDS011;8861;52.644;4.734;2023-07-29T12:13:09;4.37;;;2.07;;
17488;SDS011;8861;52.644;4.734;2023-07-29T12:15:37;4.43;;;2.00;;
17488;SDS011;8861;52.644;4.734;2023-07-29T12:18:05;4.23;;;2.03;;
17488;SDS011;8861;52.644;4.734;2023-07-29T12:20:32;4.00;;;2.00;;
17488;SDS011;8861;52.644;4.734;2023-07-29T12:23:00;4.27;;;2.27;;
17488;SDS011;8861;52.644;4.734;2023-07-29T12:25:28;4.93;;;2.40;;
17488;SDS011;8861;52.644;4.734;2023-07-29T12:27:57;5.07;;;2.00;;
17488;SDS011;8861;52.644;4.734;2023-07-29T12:30:28;3.70;;;1.70;;
17488;SDS011;8861;52.644;4.734;2023-07-29T12:32:55;5.50;;;1.60;;
17488;SDS011;8861;52.644;4.734;2023-07-29T12:35:22;3.53;;;1.53;;
17488;SDS011;8861;52.644;4.734;2023-07-29T12:37:57;4.13;;;1.47;;
17488;SDS011;8861;52.644;4.734;2023-07-29T12:40:25;2.73;;;1.40;;
17488;SDS011;8861;52.644;4.734;2023-07-29T12:42:52;2.50;;;1.37;;
17488;SDS011;8861;52.644;4.734;2023-07-29T12:45:22;2.47;;;1.27;;
17488;SDS011;8861;52.644;4.734;2023-07-29T12:47:51;3.30;;;1.40;;
17488;SDS011;8861;52.644;4.734;2023-07-29T12:50:19;3.30;;;1.33;;
17488;SDS011;8861;52.644;4.734;2023-07-29T12:52:46;2.30;;;1.27;;
17488;SDS011;8861;52.644;4.734;2023-07-29T12:55:13;2.23;;;1.10;;
17488;SDS011;8861;52.644;4.734;2023-07-29T12:57:41;1.73;;;1.20;;
17488;SDS011;8861;52.644;4.734;2023-07-29T13:00:09;2.27;;;1.20;;
17488;SDS011;8861;52.644;4.734;2023-07-29T13:02:38;1.77;;;1.27;;
17488;SDS011;8861;52.644;4.734;2023-07-29T13:05:05;1.70;;;1.10;;
17488;SDS011;8861;52.644;4.734;2023-07-29T13:07:35;2.73;;;1.40;;
17488;SDS011;8861;52.644;4.734;2023-07-29T13:10:03;2.33;;;1.23;;
17488;SDS011;8861;52.644;4.734;2023-07-29T13:12:30;4.70;;;1.70;;
17488;SDS011;8861;52.644;4.734;2023-07-29T13:14:57;4.17;;;1.80;;
17488;SDS011;8861;52.644;4.734;2023-07-29T13:17:24;3.30;;;1.60;;
17488;SDS011;8861;52.644;4.734;2023-07-29T13:19:53;2.87;;;1.37;;
17488;SDS011;8861;52.644;4.734;2023-07-29T13:22:20;2.87;;;1.30;;
17488;SDS011;8861;52.644;4.734;2023-07-29T13:24:47;3.03;;;1.30;;
17488;SDS011;8861;52.644;4.734;2023-07-29T13:27:14;1.67;;;1.27;;
17488;SDS011;8861;52.644;4.734;2023-07-29T13:29:41;5.30;;;1.23;;
17488;SDS011;8861;52.644;4.734;2023-07-29T13:32:08;3.57;;;1.10;;
17488;SDS011;8861;52.644;4.734;2023-07-29T13:34:35;3.07;;;1.33;;
17488;SDS011;8861;52.644;4.734;2023-07-29T13:37:06;2.53;;;1.30;;
17488;SDS011;8861;52.644;4.734;2023-07-29T13:39:33;2.73;;;1.23;;
17488;SDS011;8861;52.644;4.734;2023-07-29T13:42:00;2.60;;;1.17;;
17488;SDS011;8861;52.644;4.734;2023-07-29T13:44:27;2.37;;;1.23;;
17488;SDS011;8861;52.644;4.734;2023-07-29T13:46:54;2.40;;;1.17;;
17488;SDS011;8861;52.644;4.734;2023-07-29T13:49:21;2.83;;;1.20;;
17488;SDS011;8861;52.644;4.734;2023-07-29T13:51:48;3.33;;;1.17;;
17488;SDS011;8861;52.644;4.734;2023-07-29T13:54:17;1.97;;;1.30;;
17488;SDS011;8861;52.644;4.734;2023-07-29T13:56:44;1.83;;;1.10;;
17488;SDS011;8861;52.644;4.734;2023-07-29T13:59:11;1.70;;;1.20;;
17488;SDS011;8861;52.644;4.734;2023-07-29T14:01:38;2.07;;;1.10;;
17488;SDS011;8861;52.644;4.734;2023-07-29T14:04:05;1.43;;;0.83;;
17488;SDS011;8861;52.644;4.734;2023-07-29T14:06:32;2.33;;;1.00;;
17488;SDS011;8861;52.644;4.734;2023-07-29T14:08:59;2.27;;;1.20;;
17488;SDS011;8861;52.644;4.734;2023-07-29T14:11:27;2.30;;;1.00;;
17488;SDS011;8861;52.644;4.734;2023-07-29T14:13:54;2.10;;;1.13;;
17488;SDS011;8861;52.644;4.734;2023-07-29T14:16:21;2.53;;;1.20;;
17488;SDS011;8861;52.644;4.734;2023-07-29T14:18:48;2.43;;;1.10;;
17488;SDS011;8861;52.644;4.734;2023-07-29T14:21:15;2.03;;;1.30;;
17488;SDS011;8861;52.644;4.734;2023-07-29T14:23:42;3.20;;;1.20;;
17488;SDS011;8861;52.644;4.734;2023-07-29T14:26:09;3.63;;;1.30;;
17488;SDS011;8861;52.644;4.734;2023-07-29T14:28:37;1.80;;;1.10;;
17488;SDS011;8861;52.644;4.734;2023-07-29T14:31:04;2.73;;;1.30;;
17488;SDS011;8861;52.644;4.734;2023-07-29T14:33:31;2.30;;;1.40;;
17488;SDS011;8861;52.644;4.734;2023-07-29T14:35:58;2.23;;;1.33;;
17488;SDS011;8861;52.644;4.734;2023-07-29T14:38:25;2.53;;;1.43;;
17488;SDS011;8861;52.644;4.734;2023-07-29T14:40:52;2.93;;;1.50;;
17488;SDS011;8861;52.644;4.734;2023-07-29T14:43:20;1.60;;;1.00;;
17488;SDS011;8861;52.644;4.734;2023-07-29T14:45:49;3.17;;;1.30;;
17488;SDS011;8861;52.644;4.734;2023-07-29T14:48:16;3.53;;;1.40;;
17488;SDS011;8861;52.644;4.734;2023-07-29T14:50:43;2.07;;;1.10;;
17488;SDS011;8861;52.644;4.734;2023-07-29T14:53:10;2.83;;;1.20;;
17488;SDS011;8861;52.644;4.734;2023-07-29T14:55:37;2.57;;;1.30;;
17488;SDS011;8861;52.644;4.734;2023-07-29T14:58:04;4.33;;;1.10;;
17488;SDS011;8861;52.644;4.734;2023-07-29T15:00:31;3.70;;;1.10;;
17488;SDS011;8861;52.644;4.734;2023-07-29T15:02:59;2.83;;;1.13;;
17488;SDS011;8861;52.644;4.734;2023-07-29T15:05:26;1.37;;;1.00;;
17488;SDS011;8861;52.644;4.734;2023-07-29T15:07:53;2.70;;;1.10;;